Barcelona, España

11:40 AM CEST en Septiembre 18, 2014 (GMT +0200)
Viladecans | Change Station
CLOSE
Current Station
Estación meteorológica personal
Location: Viladecans, Barcelona
Altura: 130 ft
Estaciones meteorológicas cercanas

Alt 130 ft 41.31 °N, 2.00 °E | Updated 15 seconds ago

Partly Cloudy
Parcialmente nublado
74.5 ° F
Sensación térmica 74 ° F
N
0.0
Viento Variable Viento desde Oeste
Gusts 0.0 mph

Hoy
Alta -- | Baja -- ° F
--% Posibilidad de precipitaciones
Ayer
Alta -- | Baja -- ° F
Precip. -- pul
7:34 AM 7:56 PM
Creciente menguante, 28% visible
Presión 29.83 pul
Visibilidad 6.2 Millas
Nubes Baja 2500 ft
Índice de calor 74 ° F
Punto de rocío 69 ° F
Humedad 84%
Precipitaciones 0.00 pul
Espesor de la nieve No disponible.
UV 6 de una escala de 12
Polen No disponible.
Calidad del aire No disponible.
Flu Activity No disponible.
METAR LEBL 180930Z 32007KT 250V010 9999 FEW025 24/19 Q1010 NOSIG

More Conditions Fewer Conditions

Presión 29.83 pul
Visibilidad 6.2 Millas
Nubes Baja 2500 ft
Índice de calor 74 ° F
Punto de rocío 69 ° F
Humedad 84%
Precipitaciones 0.00 pul
Espesor de la nieve No disponible.
UV 6 de una escala de 12
Polen No disponible.
Calidad del aire No disponible.
Flu Activity No disponible.
METAR LEBL 180930Z 32007KT 250V010 9999 FEW025 24/19 Q1010 NOSIG

More Conditions Fewer Conditions

10-Day Weather Forecast

Almanac

Astronomía

Sep. 18, 2014 Salida Puesta
Hora real 7:34 AM CEST 7:56 PM CEST
Crepúsculo civil 7:07 AM CEST 8:23 PM CEST
Crepúsculo náutico 6:34 AM CEST 8:56 PM CEST
Crepúsculo astronómico 6:01 AM CEST 9:29 PM CEST
Luna 2:10 AM CEST 4:39 PM CEST
Horas de luz 13h 16m
Horas de luz
12h 21m
Tomorrow will be 2m 45s shorter.
Creciente menguante, 28% of the Moon is Illuminated
Hoy
Creciente menguante
Sep 24
Nueva
Oct 1
Cuarto creciente
Oct 8
Luna llena
Oct 15
Cuarto menguante

Extremos de ayer

Máximos del país Bajas del país

Community

WunderPhotos

Upload Photos

1,754,312 ¡fotos cargadas!

Nearby

Calidad del aire

Not available.

Grosos de nieve

Not available.

Actividad de terremotos

Ciudad Distance Mag. Tiempo y dato
No hay informes recientes de la actividad sísmica.
Magnitud mínima muestra es 2,5.

Temperaturas de aguas costeras

Lugar Temperatura
Sin partes meteorológicos de las estaciones

Estaciones meteorológicas cercanas